sensor_id;sensor_type;location;lat;lon;timestamp;pressure;altitude;pressure_sealevel;temperature;humidity
38716;BME280;24833;49.324;8.694;2023-02-13T00:00:46;101809.88;;;5.52;78.51
38716;BME280;24833;49.324;8.694;2023-02-13T00:03:13;101806.50;;;5.50;79.14
38716;BME280;24833;49.324;8.694;2023-02-13T00:05:40;101798.69;;;5.49;78.52
38716;BME280;24833;49.324;8.694;2023-02-13T00:08:07;101795.28;;;5.46;78.59
38716;BME280;24833;49.324;8.694;2023-02-13T00:10:34;101792.75;;;5.45;79.22
38716;BME280;24833;49.324;8.694;2023-02-13T00:13:02;101798.03;;;5.45;79.37
38716;BME280;24833;49.324;8.694;2023-02-13T00:15:29;101789.38;;;5.43;78.70
38716;BME280;24833;49.324;8.694;2023-02-13T00:17:56;101787.69;;;5.42;79.86
38716;BME280;24833;49.324;8.694;2023-02-13T00:20:23;101797.41;;;5.41;79.50
38716;BME280;24833;49.324;8.694;2023-02-13T00:22:50;101791.25;;;5.41;80.29
38716;BME280;24833;49.324;8.694;2023-02-13T00:25:17;101796.56;;;5.41;79.29
38716;BME280;24833;49.324;8.694;2023-02-13T00:27:44;101790.53;;;5.39;78.75
38716;BME280;24833;49.324;8.694;2023-02-13T00:30:12;101796.81;;;5.38;78.94
38716;BME280;24833;49.324;8.694;2023-02-13T00:32:39;101791.63;;;5.36;80.28
38716;BME280;24833;49.324;8.694;2023-02-13T00:35:06;101786.31;;;5.36;79.55
38716;BME280;24833;49.324;8.694;2023-02-13T00:37:33;101786.41;;;5.35;79.58
38716;BME280;24833;49.324;8.694;2023-02-13T00:40:00;101784.63;;;5.35;79.21
38716;BME280;24833;49.324;8.694;2023-02-13T00:42:27;101779.44;;;5.34;78.55
38716;BME280;24833;49.324;8.694;2023-02-13T00:44:54;101780.38;;;5.33;78.89
38716;BME280;24833;49.324;8.694;2023-02-13T00:47:22;101781.34;;;5.32;78.73
38716;BME280;24833;49.324;8.694;2023-02-13T00:49:49;101779.66;;;5.31;79.38
38716;BME280;24833;49.324;8.694;2023-02-13T00:52:16;101777.03;;;5.31;79.09
38716;BME280;24833;49.324;8.694;2023-02-13T00:54:43;101788.56;;;5.30;79.90
38716;BME280;24833;49.324;8.694;2023-02-13T00:57:11;101789.53;;;5.29;79.27
38716;BME280;24833;49.324;8.694;2023-02-13T00:59:38;101789.53;;;5.29;79.56
38716;BME280;24833;49.324;8.694;2023-02-13T01:02:05;101783.47;;;5.27;79.26
38716;BME280;24833;49.324;8.694;2023-02-13T01:04:32;101786.13;;;5.27;79.92
38716;BME280;24833;49.324;8.694;2023-02-13T01:06:59;101773.97;;;5.24;79.48
38716;BME280;24833;49.324;8.694;2023-02-13T01:09:26;101783.59;;;5.25;79.85
38716;BME280;24833;49.324;8.694;2023-02-13T01:11:53;101785.41;;;5.25;80.02
38716;BME280;24833;49.324;8.694;2023-02-13T01:14:20;101779.25;;;5.24;81.25
38716;BME280;24833;49.324;8.694;2023-02-13T01:16:48;101790.69;;;5.25;80.67
38716;BME280;24833;49.324;8.694;2023-02-13T01:19:15;101790.69;;;5.25;79.52
38716;BME280;24833;49.324;8.694;2023-02-13T01:21:42;101794.31;;;5.24;79.98
38716;BME280;24833;49.324;8.694;2023-02-13T01:24:10;101786.47;;;5.22;80.51
38716;BME280;24833;49.324;8.694;2023-02-13T01:26:37;101785.63;;;5.22;79.89
38716;BME280;24833;49.324;8.694;2023-02-13T01:29:04;101792.72;;;5.21;79.65
38716;BME280;24833;49.324;8.694;2023-02-13T01:31:32;101786.56;;;5.20;79.95
38716;BME280;24833;49.324;8.694;2023-02-13T01:33:59;101793.66;;;5.20;79.41
38716;BME280;24833;49.324;8.694;2023-02-13T01:36:26;101787.53;;;5.19;79.88
38716;BME280;24833;49.324;8.694;2023-02-13T01:38:56;101779.72;;;5.18;79.99
38716;BME280;24833;49.324;8.694;2023-02-13T01:41:26;101790.28;;;5.18;79.67
38716;BME280;24833;49.324;8.694;2023-02-13T01:43:58;101782.47;;;5.16;79.31
38716;BME280;24833;49.324;8.694;2023-02-13T01:46:37;101779.81;;;5.16;78.94
38716;BME280;24833;49.324;8.694;2023-02-13T01:49:17;101779.06;;;5.14;79.09
38716;BME280;24833;49.324;8.694;2023-02-13T01:51:48;101780.78;;;5.15;80.15
38716;BME280;24833;49.324;8.694;2023-02-13T01:54:24;101777.38;;;5.13;79.55
38716;BME280;24833;49.324;8.694;2023-02-13T01:57:10;101786.28;;;5.12;79.36
38716;BME280;24833;49.324;8.694;2023-02-13T01:59:56;101782.78;;;5.12;79.33
38716;BME280;24833;49.324;8.694;2023-02-13T02:02:28;101779.31;;;5.11;79.53
38716;BME280;24833;49.324;8.694;2023-02-13T02:05:01;101779.31;;;5.11;80.06
38716;BME280;24833;49.324;8.694;2023-02-13T02:07:30;101778.47;;;5.11;79.35
38716;BME280;24833;49.324;8.694;2023-02-13T02:10:16;101781.22;;;5.09;78.87
38716;BME280;24833;49.324;8.694;2023-02-13T02:13:13;101787.47;;;5.08;79.46
38716;BME280;24833;49.324;8.694;2023-02-13T02:15:41;101791.06;;;5.07;79.28
38716;BME280;24833;49.324;8.694;2023-02-13T02:18:22;101792.97;;;5.05;78.73
38716;BME280;24833;49.324;8.694;2023-02-13T02:29:50;101788.22;;;4.98;79.52
38716;BME280;24833;49.324;8.694;2023-02-13T02:32:49;101793.72;;;4.95;78.56
38716;BME280;24833;49.324;8.694;2023-02-13T02:39:13;101788.03;;;4.88;78.25
38716;BME280;24833;49.324;8.694;2023-02-13T02:45:38;101790.38;;;4.80;78.28
38716;BME280;24833;49.324;8.694;2023-02-13T02:51:37;101788.06;;;4.75;78.29
38716;BME280;24833;49.324;8.694;2023-02-13T02:54:42;101782.97;;;4.72;78.08
38716;BME280;24833;49.324;8.694;2023-02-13T02:57:39;101785.72;;;4.71;78.20
38716;BME280;24833;49.324;8.694;2023-02-13T03:00:28;101787.66;;;4.69;78.65
38716;BME280;24833;49.324;8.694;2023-02-13T03:03:22;101787.84;;;4.65;78.27
38716;BME280;24833;49.324;8.694;2023-02-13T03:06:28;101785.44;;;4.62;77.83
38716;BME280;24833;49.324;8.694;2023-02-13T03:09:01;101783.81;;;4.60;78.34
38716;BME280;24833;49.324;8.694;2023-02-13T03:11:53;101785.75;;;4.58;77.98
38716;BME280;24833;49.324;8.694;2023-02-13T03:14:40;101790.38;;;4.54;78.16
38716;BME280;24833;49.324;8.694;2023-02-13T03:17:12;101786.16;;;4.52;78.67
38716;BME280;24833;49.324;8.694;2023-02-13T03:23:11;101804.97;;;4.47;78.58
38716;BME280;24833;49.324;8.694;2023-02-13T03:26:21;101806.06;;;4.45;78.15
38716;BME280;24833;49.324;8.694;2023-02-13T03:29:17;101804.38;;;4.44;78.20
38716;BME280;24833;49.324;8.694;2023-02-13T03:35:37;101815.25;;;4.39;77.78
38716;BME280;24833;49.324;8.694;2023-02-13T03:38:56;101811.88;;;4.37;78.01
38716;BME280;24833;49.324;8.694;2023-02-13T03:41:42;101813.78;;;4.35;77.73
38716;BME280;24833;49.324;8.694;2023-02-13T03:44:40;101825.28;;;4.34;77.88
38716;BME280;24833;49.324;8.694;2023-02-13T03:47:10;101829.84;;;4.32;78.04
38716;BME280;24833;49.324;8.694;2023-02-13T03:49:48;101832.59;;;4.30;77.77
38716;BME280;24833;49.324;8.694;2023-02-13T03:52:54;101831.00;;;4.28;77.56
38716;BME280;24833;49.324;8.694;2023-02-13T03:55:45;101828.69;;;4.23;77.56
38716;BME280;24833;49.324;8.694;2023-02-13T03:58:36;101830.56;;;4.21;77.96
38716;BME280;24833;49.324;8.694;2023-02-13T04:01:26;101836.91;;;4.19;77.70
38716;BME280;24833;49.324;8.694;2023-02-13T04:04:18;101837.13;;;4.16;77.89
38716;BME280;24833;49.324;8.694;2023-02-13T04:07:00;101829.28;;;4.14;77.68
38716;BME280;24833;49.324;8.694;2023-02-13T04:09:30;101828.44;;;4.14;77.94
38716;BME280;24833;49.324;8.694;2023-02-13T04:12:20;101836.47;;;4.12;77.83
38716;BME280;24833;49.324;8.694;2023-02-13T04:15:06;101831.19;;;4.12;77.85
38716;BME280;24833;49.324;8.694;2023-02-13T04:17:57;101830.34;;;4.12;78.20
38716;BME280;24833;49.324;8.694;2023-02-13T04:20:31;101825.59;;;4.17;79.57
38716;BME280;24833;49.324;8.694;2023-02-13T04:23:05;101826.44;;;4.17;78.45
38716;BME280;24833;49.324;8.694;2023-02-13T04:25:34;101823.69;;;4.19;78.68
38716;BME280;24833;49.324;8.694;2023-02-13T04:28:02;101822.72;;;4.20;78.92
38716;BME280;24833;49.324;8.694;2023-02-13T04:30:29;101819.25;;;4.19;78.62
38716;BME280;24833;49.324;8.694;2023-02-13T04:32:56;101819.25;;;4.19;79.18
38716;BME280;24833;49.324;8.694;2023-02-13T04:35:23;101817.44;;;4.20;79.40
38716;BME280;24833;49.324;8.694;2023-02-13T04:37:50;101823.69;;;4.19;78.87
38716;BME280;24833;49.324;8.694;2023-02-13T04:40:17;101821.88;;;4.19;78.96
38716;BME280;24833;49.324;8.694;2023-02-13T04:42:47;101824.66;;;4.18;79.25
38716;BME280;24833;49.324;8.694;2023-02-13T04:45:15;101822.09;;;4.16;79.73
38716;BME280;24833;49.324;8.694;2023-02-13T04:47:42;101816.06;;;4.14;78.79
38716;BME280;24833;49.324;8.694;2023-02-13T04:50:15;101814.47;;;4.12;79.47
38716;BME280;24833;49.324;8.694;2023-02-13T04:52:42;101820.72;;;4.10;79.78
38716;BME280;24833;49.324;8.694;2023-02-13T04:55:09;101825.16;;;4.10;79.51
38716;BME280;24833;49.324;8.694;2023-02-13T04:57:36;101821.88;;;4.06;79.29
38716;BME280;24833;49.324;8.694;2023-02-13T05:00:04;101821.13;;;4.04;79.68
38716;BME280;24833;49.324;8.694;2023-02-13T05:02:32;101822.09;;;4.03;80.52
38716;BME280;24833;49.324;8.694;2023-02-13T05:04:59;101823.22;;;3.99;81.39
38716;BME280;24833;49.324;8.694;2023-02-13T05:07:26;101819.84;;;3.97;80.15
38716;BME280;24833;49.324;8.694;2023-02-13T05:09:53;101820.91;;;3.95;80.67
38716;BME280;24833;49.324;8.694;2023-02-13T05:12:20;101819.41;;;3.91;80.88
38716;BME280;24833;49.324;8.694;2023-02-13T05:14:47;101817.81;;;3.88;79.96
38716;BME280;24833;49.324;8.694;2023-02-13T05:17:14;101813.56;;;3.86;80.22
38716;BME280;24833;49.324;8.694;2023-02-13T05:19:41;101819.91;;;3.83;80.65
38716;BME280;24833;49.324;8.694;2023-02-13T05:22:09;101815.66;;;3.80;80.28
38716;BME280;24833;49.324;8.694;2023-02-13T05:24:55;101817.56;;;3.78;81.36
38716;BME280;24833;49.324;8.694;2023-02-13T05:27:22;101818.63;;;3.76;80.99
38716;BME280;24833;49.324;8.694;2023-02-13T05:29:49;101813.41;;;3.74;80.91
38716;BME280;24833;49.324;8.694;2023-02-13T05:32:16;101815.31;;;3.72;80.96
38716;BME280;24833;49.324;8.694;2023-02-13T05:34:43;101811.00;;;3.71;81.22
38716;BME280;24833;49.324;8.694;2023-02-13T05:37:10;101815.63;;;3.68;80.94
38716;BME280;24833;49.324;8.694;2023-02-13T05:39:37;101820.91;;;3.68;80.56
38716;BME280;24833;49.324;8.694;2023-02-13T05:42:04;101821.13;;;3.65;81.59
38716;BME280;24833;49.324;8.694;2023-02-13T05:44:31;101811.59;;;3.62;81.43
38716;BME280;24833;49.324;8.694;2023-02-13T05:46:58;101821.50;;;3.59;82.22
38716;BME280;24833;49.324;8.694;2023-02-13T05:49:25;101821.72;;;3.55;82.54
38716;BME280;24833;49.324;8.694;2023-02-13T05:51:52;101813.13;;;3.52;82.48
38716;BME280;24833;49.324;8.694;2023-02-13T05:54:19;101811.53;;;3.49;81.79
38716;BME280;24833;49.324;8.694;2023-02-13T05:56:47;101805.59;;;3.46;81.88
38716;BME280;24833;49.324;8.694;2023-02-13T05:59:14;101804.97;;;3.42;82.35
38716;BME280;24833;49.324;8.694;2023-02-13T06:01:41;101801.66;;;3.39;81.92
38716;BME280;24833;49.324;8.694;2023-02-13T06:04:07;101800.09;;;3.36;82.43
38716;BME280;24833;49.324;8.694;2023-02-13T06:06:35;101799.41;;;3.33;81.96
38716;BME280;24833;49.324;8.694;2023-02-13T06:09:02;101804.06;;;3.29;82.39
38716;BME280;24833;49.324;8.694;2023-02-13T06:11:29;101806.13;;;3.24;82.27
38716;BME280;24833;49.324;8.694;2023-02-13T06:13:56;101802.75;;;3.22;82.42
38716;BME280;24833;49.324;8.694;2023-02-13T06:16:23;101795.03;;;3.19;83.01
38716;BME280;24833;49.324;8.694;2023-02-13T06:18:50;101804.84;;;3.17;82.38
38716;BME280;24833;49.324;8.694;2023-02-13T06:21:17;101804.16;;;3.13;81.92
38716;BME280;24833;49.324;8.694;2023-02-13T06:23:44;101805.22;;;3.11;82.32
38716;BME280;24833;49.324;8.694;2023-02-13T06:26:11;101812.41;;;3.09;83.20
38716;BME280;24833;49.324;8.694;2023-02-13T06:28:38;101806.44;;;3.05;83.39
38716;BME280;24833;49.324;8.694;2023-02-13T06:31:05;101809.19;;;3.04;84.18
38716;BME280;24833;49.324;8.694;2023-02-13T06:33:32;101812.78;;;3.03;84.12
38716;BME280;24833;49.324;8.694;2023-02-13T06:35:59;101815.53;;;3.01;83.46
38716;BME280;24833;49.324;8.694;2023-02-13T06:38:26;101823.50;;;2.99;83.43
38716;BME280;24833;49.324;8.694;2023-02-13T06:41:01;101824.44;;;2.98;83.80
38716;BME280;24833;49.324;8.694;2023-02-13T06:43:28;101822.88;;;2.96;84.29
38716;BME280;24833;49.324;8.694;2023-02-13T06:45:55;101822.09;;;2.94;83.75
38716;BME280;24833;49.324;8.694;2023-02-13T06:48:22;101829.00;;;2.96;84.62
38716;BME280;24833;49.324;8.694;2023-02-13T06:50:49;101823.88;;;2.93;84.21
38716;BME280;24833;49.324;8.694;2023-02-13T06:53:18;101827.47;;;2.92;84.54
38716;BME280;24833;49.324;8.694;2023-02-13T06:55:51;101831.06;;;2.91;83.90
38716;BME280;24833;49.324;8.694;2023-02-13T06:58:20;101840.03;;;2.89;84.03
38716;BME280;24833;49.324;8.694;2023-02-13T07:00:49;101833.13;;;2.86;84.36
38716;BME280;24833;49.324;8.694;2023-02-13T07:03:16;101832.47;;;2.83;84.05
38716;BME280;24833;49.324;8.694;2023-02-13T07:05:44;101829.06;;;2.81;84.50
38716;BME280;24833;49.324;8.694;2023-02-13T07:08:12;101831.81;;;2.79;83.20
38716;BME280;24833;49.324;8.694;2023-02-13T07:10:40;101834.53;;;2.78;83.97
38716;BME280;24833;49.324;8.694;2023-02-13T07:13:08;101842.56;;;2.76;83.68
38716;BME280;24833;49.324;8.694;2023-02-13T07:15:36;101833.88;;;2.74;84.14
38716;BME280;24833;49.324;8.694;2023-02-13T07:18:04;101845.38;;;2.73;84.08
38716;BME280;24833;49.324;8.694;2023-02-13T07:20:32;101843.56;;;2.73;83.78
38716;BME280;24833;49.324;8.694;2023-02-13T07:23:02;101848.84;;;2.73;84.41
38716;BME280;24833;49.324;8.694;2023-02-13T07:25:30;101841.03;;;2.72;84.39
38716;BME280;24833;49.324;8.694;2023-02-13T07:28:05;101848.22;;;2.70;84.25
38716;BME280;24833;49.324;8.694;2023-02-13T07:30:33;101848.94;;;2.72;84.51
38716;BME280;24833;49.324;8.694;2023-02-13T07:33:02;101853.28;;;2.73;84.03
38716;BME280;24833;49.324;8.694;2023-02-13T07:35:29;101845.38;;;2.73;84.42
38716;BME280;24833;49.324;8.694;2023-02-13T07:37:57;101847.84;;;2.76;84.60
38716;BME280;24833;49.324;8.694;2023-02-13T07:40:26;101851.22;;;2.78;85.19
38716;BME280;24833;49.324;8.694;2023-02-13T07:42:53;101857.25;;;2.80;84.58
38716;BME280;24833;49.324;8.694;2023-02-13T07:45:20;101856.13;;;2.84;85.21
38716;BME280;24833;49.324;8.694;2023-02-13T07:47:47;101859.34;;;2.89;85.04
38716;BME280;24833;49.324;8.694;2023-02-13T07:50:14;101850.28;;;2.93;85.53
38716;BME280;24833;49.324;8.694;2023-02-13T07:52:41;101853.47;;;2.98;85.27
38716;BME280;24833;49.324;8.694;2023-02-13T07:55:08;101856.59;;;3.05;85.29
38716;BME280;24833;49.324;8.694;2023-02-13T07:57:37;101850.09;;;3.11;85.76
38716;BME280;24833;49.324;8.694;2023-02-13T08:00:05;101846.31;;;3.15;85.55
38716;BME280;24833;49.324;8.694;2023-02-13T08:02:37;101850.28;;;3.22;85.77
38716;BME280;24833;49.324;8.694;2023-02-13T08:05:05;101842.88;;;3.27;85.58
38716;BME280;24833;49.324;8.694;2023-02-13T08:07:32;101852.22;;;3.33;85.91
38716;BME280;24833;49.324;8.694;2023-02-13T08:09:59;101851.94;;;3.37;85.81
38716;BME280;24833;49.324;8.694;2023-02-13T08:12:45;101847.22;;;3.42;85.83
38716;BME280;24833;49.324;8.694;2023-02-13T08:15:14;101845.09;;;3.47;86.17
38716;BME280;24833;49.324;8.694;2023-02-13T08:17:41;101842.28;;;3.50;85.95
38716;BME280;24833;49.324;8.694;2023-02-13T08:20:08;101849.94;;;3.55;85.48
38716;BME280;24833;49.324;8.694;2023-02-13T08:22:36;101848.59;;;3.62;85.83
38716;BME280;24833;49.324;8.694;2023-02-13T08:25:05;101847.41;;;3.66;85.60
38716;BME280;24833;49.324;8.694;2023-02-13T08:27:33;101845.34;;;3.71;85.69
38716;BME280;24833;49.324;8.694;2023-02-13T08:30:00;101851.06;;;3.78;86.06
38716;BME280;24833;49.324;8.694;2023-02-13T08:32:30;101837.47;;;3.84;86.09
38716;BME280;24833;49.324;8.694;2023-02-13T08:35:07;101838.75;;;3.91;85.98
38716;BME280;24833;49.324;8.694;2023-02-13T08:37:34;101844.59;;;3.96;85.83
38716;BME280;24833;49.324;8.694;2023-02-13T08:40:01;101829.28;;;4.01;85.30
38716;BME280;24833;49.324;8.694;2023-02-13T08:42:28;101837.53;;;4.09;85.65
38716;BME280;24833;49.324;8.694;2023-02-13T08:44:55;101826.56;;;4.16;85.80
38716;BME280;24833;49.324;8.694;2023-02-13T08:47:24;101838.41;;;4.23;85.76
38716;BME280;24833;49.324;8.694;2023-02-13T08:49:51;101838.84;;;4.29;85.52
38716;BME280;24833;49.324;8.694;2023-02-13T08:52:18;101845.53;;;4.35;85.59
38716;BME280;24833;49.324;8.694;2023-02-13T08:54:45;101845.00;;;4.43;85.57
38716;BME280;24833;49.324;8.694;2023-02-13T08:57:12;101843.72;;;4.48;85.27
38716;BME280;24833;49.324;8.694;2023-02-13T08:59:39;101841.41;;;4.56;85.32
38716;BME280;24833;49.324;8.694;2023-02-13T09:02:07;101838.34;;;4.62;85.21
38716;BME280;24833;49.324;8.694;2023-02-13T09:04:34;101836.13;;;4.69;85.46
38716;BME280;24833;49.324;8.694;2023-02-13T09:07:01;101847.31;;;4.73;85.30
38716;BME280;24833;49.324;8.694;2023-02-13T09:09:28;101845.94;;;4.80;85.02
38716;BME280;24833;49.324;8.694;2023-02-13T09:11:55;101845.53;;;4.86;85.23
38716;BME280;24833;49.324;8.694;2023-02-13T09:14:24;101858.31;;;4.92;85.18
38716;BME280;24833;49.324;8.694;2023-02-13T09:16:51;101850.91;;;4.97;84.89
38716;BME280;24833;49.324;8.694;2023-02-13T09:19:18;101841.59;;;5.04;85.03
38716;BME280;24833;49.324;8.694;2023-02-13T09:21:45;101845.59;;;5.10;84.83
38716;BME280;24833;49.324;8.694;2023-02-13T09:24:12;101849.63;;;5.15;84.72
38716;BME280;24833;49.324;8.694;2023-02-13T09:26:39;101849.28;;;5.20;84.52
38716;BME280;24833;49.324;8.694;2023-02-13T09:29:06;101837.53;;;5.24;84.69
38716;BME280;24833;49.324;8.694;2023-02-13T09:31:32;101856.47;;;5.31;84.65
38716;BME280;24833;49.324;8.694;2023-02-13T09:34:00;101848.09;;;5.37;84.61
38716;BME280;24833;49.324;8.694;2023-02-13T09:36:27;101845.00;;;5.43;84.41
38716;BME280;24833;49.324;8.694;2023-02-13T09:38:55;101836.63;;;5.49;84.44
38716;BME280;24833;49.324;8.694;2023-02-13T09:41:31;101841.25;;;5.58;84.67
38716;BME280;24833;49.324;8.694;2023-02-13T09:44:17;101839.72;;;5.67;84.40
38716;BME280;24833;49.324;8.694;2023-02-13T09:50:02;101845.47;;;5.85;84.64
38716;BME280;24833;49.324;8.694;2023-02-13T09:52:35;101852.75;;;5.94;84.93
38716;BME280;24833;49.324;8.694;2023-02-13T09:55:46;101843.78;;;6.08;85.32
38716;BME280;24833;49.324;8.694;2023-02-13T10:01:38;101851.72;;;6.32;85.16
38716;BME280;24833;49.324;8.694;2023-02-13T10:04:35;101851.84;;;6.41;85.36
38716;BME280;24833;49.324;8.694;2023-02-13T10:07:25;101858.88;;;6.53;85.13
38716;BME280;24833;49.324;8.694;2023-02-13T10:15:51;101858.34;;;6.83;85.03
38716;BME280;24833;49.324;8.694;2023-02-13T10:18:26;101863.88;;;6.92;85.16
38716;BME280;24833;49.324;8.694;2023-02-13T10:21:02;101854.13;;;7.03;85.11
38716;BME280;24833;49.324;8.694;2023-02-13T10:23:37;101851.69;;;7.12;85.16
38716;BME280;24833;49.324;8.694;2023-02-13T10:26:21;101860.50;;;7.23;85.59
38716;BME280;24833;49.324;8.694;2023-02-13T10:29:04;101860.63;;;7.33;85.55
38716;BME280;24833;49.324;8.694;2023-02-13T10:31:53;101859.03;;;7.42;84.96
38716;BME280;24833;49.324;8.694;2023-02-13T10:34:25;101856.63;;;7.50;85.33
38716;BME280;24833;49.324;8.694;2023-02-13T10:36:54;101856.97;;;7.56;84.96
38716;BME280;24833;49.324;8.694;2023-02-13T10:39:29;101850.88;;;7.65;85.48
38716;BME280;24833;49.324;8.694;2023-02-13T10:48:42;101846.31;;;8.00;85.99
38716;BME280;24833;49.324;8.694;2023-02-13T10:51:29;101842.75;;;8.10;85.89
38716;BME280;24833;49.324;8.694;2023-02-13T10:58:11;101840.81;;;8.33;85.91
38716;BME280;24833;49.324;8.694;2023-02-13T11:01:09;101836.69;;;8.40;85.62
38716;BME280;24833;49.324;8.694;2023-02-13T11:03:40;101836.88;;;8.49;85.07
38716;BME280;24833;49.324;8.694;2023-02-13T11:06:11;101841.44;;;8.58;84.70
38716;BME280;24833;49.324;8.694;2023-02-13T11:08:44;101838.13;;;8.65;84.60
38716;BME280;24833;49.324;8.694;2023-02-13T11:11:36;101835.78;;;8.72;84.67
38716;BME280;24833;49.324;8.694;2023-02-13T11:14:18;101831.75;;;8.78;85.39
38716;BME280;24833;49.324;8.694;2023-02-13T11:17:03;101833.72;;;8.85;85.99
38716;BME280;24833;49.324;8.694;2023-02-13T11:19:48;101831.94;;;8.95;86.18
38716;BME280;24833;49.324;8.694;2023-02-13T11:22:34;101832.84;;;9.06;86.50
38716;BME280;24833;49.324;8.694;2023-02-13T11:25:25;101830.63;;;9.20;86.99
38716;BME280;24833;49.324;8.694;2023-02-13T11:28:13;101825.06;;;9.33;86.57
38716;BME280;24833;49.324;8.694;2023-02-13T11:30:43;101826.34;;;9.39;85.47
38716;BME280;24833;49.324;8.694;2023-02-13T11:35:45;101825.38;;;9.49;85.48
38716;BME280;24833;49.324;8.694;2023-02-13T11:38:20;101828.47;;;9.54;85.69
38716;BME280;24833;49.324;8.694;2023-02-13T11:41:09;101819.78;;;9.62;87.41
38716;BME280;24833;49.324;8.694;2023-02-13T11:43:48;101819.53;;;9.75;87.77
38716;BME280;24833;49.324;8.694;2023-02-13T11:46:23;101814.22;;;9.85;86.91
38716;BME280;24833;49.324;8.694;2023-02-13T11:49:05;101819.28;;;9.97;88.20
38716;BME280;24833;49.324;8.694;2023-02-13T11:51:49;101819.00;;;10.10;88.37
38716;BME280;24833;49.324;8.694;2023-02-13T11:57:03;101810.38;;;10.35;87.73
38716;BME280;24833;49.324;8.694;2023-02-13T11:59:45;101807.41;;;10.48;87.82
38716;BME280;24833;49.324;8.694;2023-02-13T12:02:27;101814.97;;;10.62;89.08
38716;BME280;24833;49.324;8.694;2023-02-13T12:05:27;101806.88;;;10.82;89.85
38716;BME280;24833;49.324;8.694;2023-02-13T12:08:00;101805.63;;;10.86;88.26
38716;BME280;24833;49.324;8.694;2023-02-13T12:10:30;101799.28;;;10.87;87.28
38716;BME280;24833;49.324;8.694;2023-02-13T12:15:36;101802.78;;;10.97;87.34
38716;BME280;24833;49.324;8.694;2023-02-13T12:18:24;101796.53;;;11.06;88.79
38716;BME280;24833;49.324;8.694;2023-02-13T12:24:02;101788.31;;;11.17;89.68
38716;BME280;24833;49.324;8.694;2023-02-13T12:26:40;101788.41;;;11.26;89.68
38716;BME280;24833;49.324;8.694;2023-02-13T12:32:17;101789.50;;;11.51;89.88
38716;BME280;24833;49.324;8.694;2023-02-13T12:48:52;101765.94;;;12.08;90.01
38716;BME280;24833;49.324;8.694;2023-02-13T12:51:39;101769.53;;;12.16;90.46
38716;BME280;24833;49.324;8.694;2023-02-13T12:57:22;101755.28;;;12.42;90.28
38716;BME280;24833;49.324;8.694;2023-02-13T13:03:34;101753.97;;;12.72;91.78
38716;BME280;24833;49.324;8.694;2023-02-13T13:06:40;101755.50;;;12.82;92.15
38716;BME280;24833;49.324;8.694;2023-02-13T13:09:34;101752.38;;;12.95;91.91
38716;BME280;24833;49.324;8.694;2023-02-13T13:15:18;101748.59;;;13.14;91.67
38716;BME280;24833;49.324;8.694;2023-02-13T13:21:16;101743.97;;;13.24;91.74
38716;BME280;24833;49.324;8.694;2023-02-13T13:24:28;101745.00;;;13.31;91.45
38716;BME280;24833;49.324;8.694;2023-02-13T13:26:59;101746.31;;;13.27;88.62
38716;BME280;24833;49.324;8.694;2023-02-13T13:30:00;101743.97;;;13.32;91.55
38716;BME280;24833;49.324;8.694;2023-02-13T13:32:30;101734.25;;;13.31;89.36
38716;BME280;24833;49.324;8.694;2023-02-13T13:34:59;101738.97;;;13.38;89.40
38716;BME280;24833;49.324;8.694;2023-02-13T13:37:44;101736.78;;;13.49;90.57
38716;BME280;24833;49.324;8.694;2023-02-13T13:40:29;101736.47;;;13.52;90.92
38716;BME280;24833;49.324;8.694;2023-02-13T13:43:32;101738.31;;;13.60;91.18
38716;BME280;24833;49.324;8.694;2023-02-13T13:46:20;101731.94;;;13.69;91.38
38716;BME280;24833;49.324;8.694;2023-02-13T13:49:34;101741.84;;;13.77;91.57
38716;BME280;24833;49.324;8.694;2023-02-13T13:52:35;101734.63;;;13.77;90.94
38716;BME280;24833;49.324;8.694;2023-02-13T13:55:04;101726.41;;;13.79;88.67
38716;BME280;24833;49.324;8.694;2023-02-13T13:57:58;101724.38;;;13.89;90.28
38716;BME280;24833;49.324;8.694;2023-02-13T14:00:29;101717.00;;;13.83;88.22
38716;BME280;24833;49.324;8.694;2023-02-13T14:03:34;101715.31;;;13.90;89.77
38716;BME280;24833;49.324;8.694;2023-02-13T14:06:07;101719.53;;;13.84;87.10
38716;BME280;24833;49.324;8.694;2023-02-13T14:11:45;101713.81;;;13.87;89.25
38716;BME280;24833;49.324;8.694;2023-02-13T14:16:58;101705.78;;;13.79;85.44
38716;BME280;24833;49.324;8.694;2023-02-13T14:19:38;101694.19;;;13.79;86.56
38716;BME280;24833;49.324;8.694;2023-02-13T14:24:53;101702.75;;;13.74;84.55
38716;BME280;24833;49.324;8.694;2023-02-13T14:27:29;101707.13;;;13.67;83.92
38716;BME280;24833;49.324;8.694;2023-02-13T14:29:57;101702.22;;;13.62;83.14
38716;BME280;24833;49.324;8.694;2023-02-13T14:32:33;101709.09;;;13.57;83.36
38716;BME280;24833;49.324;8.694;2023-02-13T14:35:26;101701.22;;;13.55;84.25
38716;BME280;24833;49.324;8.694;2023-02-13T14:38:03;101697.53;;;13.48;82.61
38716;BME280;24833;49.324;8.694;2023-02-13T14:40:47;101695.34;;;13.44;82.57
38716;BME280;24833;49.324;8.694;2023-02-13T14:43:22;101689.97;;;13.35;80.72
38716;BME280;24833;49.324;8.694;2023-02-13T14:46:05;101692.47;;;13.29;81.31
38716;BME280;24833;49.324;8.694;2023-02-13T14:48:41;101693.31;;;13.21;80.92
38716;BME280;24833;49.324;8.694;2023-02-13T14:51:23;101691.78;;;13.19;79.41
38716;BME280;24833;49.324;8.694;2023-02-13T14:54:01;101694.59;;;13.09;79.86
38716;BME280;24833;49.324;8.694;2023-02-13T14:56:29;101695.41;;;13.01;80.03
38716;BME280;24833;49.324;8.694;2023-02-13T14:59:14;101690.03;;;13.01;79.44
38716;BME280;24833;49.324;8.694;2023-02-13T15:01:51;101690.22;;;13.00;79.01
38716;BME280;24833;49.324;8.694;2023-02-13T15:05:31;101690.69;;;12.95;78.15
38716;BME280;24833;49.324;8.694;2023-02-13T15:07:29;101683.47;;;12.88;78.36
38716;BME280;24833;49.324;8.694;2023-02-13T15:10:43;101686.31;;;12.86;77.97
38716;BME280;24833;49.324;8.694;2023-02-13T15:16:04;101688.78;;;12.71;77.92
38716;BME280;24833;49.324;8.694;2023-02-13T15:18:43;101676.88;;;12.66;76.67